sensor_id;sensor_type;location;lat;lon;timestamp;P1;durP1;ratioP1;P2;durP2;ratioP2
21901;SDS011;11115;46.038;14.612;2022-08-25T00:01:41;1.83;;;1.23;;
21901;SDS011;11115;46.038;14.612;2022-08-25T00:04:31;4.00;;;1.77;;
21901;SDS011;11115;46.038;14.612;2022-08-25T00:07:03;2.45;;;1.30;;
21901;SDS011;11115;46.038;14.612;2022-08-25T00:09:45;2.28;;;1.20;;
21901;SDS011;11115;46.038;14.612;2022-08-25T00:12:17;2.78;;;1.60;;
21901;SDS011;11115;46.038;14.612;2022-08-25T00:14:50;1.90;;;1.40;;
21901;SDS011;11115;46.038;14.612;2022-08-25T00:17:23;1.88;;;1.70;;
21901;SDS011;11115;46.038;14.612;2022-08-25T00:19:56;2.35;;;1.55;;
21901;SDS011;11115;46.038;14.612;2022-08-25T00:22:27;2.80;;;1.63;;
21901;SDS011;11115;46.038;14.612;2022-08-25T00:25:01;3.03;;;1.40;;
21901;SDS011;11115;46.038;14.612;2022-08-25T00:30:14;1.70;;;1.25;;
21901;SDS011;11115;46.038;14.612;2022-08-25T00:32:49;3.05;;;1.98;;
21901;SDS011;11115;46.038;14.612;2022-08-25T00:35:32;2.92;;;1.58;;
21901;SDS011;11115;46.038;14.612;2022-08-25T00:38:14;1.27;;;1.17;;
21901;SDS011;11115;46.038;14.612;2022-08-25T00:40:46;1.88;;;1.52;;
21901;SDS011;11115;46.038;14.612;2022-08-25T00:43:47;2.38;;;1.55;;
21901;SDS011;11115;46.038;14.612;2022-08-25T00:46:31;2.33;;;1.67;;
21901;SDS011;11115;46.038;14.612;2022-08-25T00:49:11;2.63;;;1.60;;
21901;SDS011;11115;46.038;14.612;2022-08-25T00:54:41;1.95;;;1.70;;
21901;SDS011;11115;46.038;14.612;2022-08-25T00:57:39;1.83;;;1.67;;
21901;SDS011;11115;46.038;14.612;2022-08-25T01:00:27;2.42;;;1.60;;
21901;SDS011;11115;46.038;14.612;2022-08-25T01:02:59;2.13;;;1.73;;
21901;SDS011;11115;46.038;14.612;2022-08-25T01:05:28;1.45;;;1.33;;
21901;SDS011;11115;46.038;14.612;2022-08-25T01:08:02;3.08;;;1.60;;
21901;SDS011;11115;46.038;14.612;2022-08-25T01:10:42;6.85;;;1.65;;
21901;SDS011;11115;46.038;14.612;2022-08-25T01:13:19;1.92;;;1.67;;
21901;SDS011;11115;46.038;14.612;2022-08-25T01:16:16;1.38;;;1.25;;
21901;SDS011;11115;46.038;14.612;2022-08-25T01:18:54;2.10;;;1.73;;
21901;SDS011;11115;46.038;14.612;2022-08-25T01:21:29;3.33;;;1.43;;
21901;SDS011;11115;46.038;14.612;2022-08-25T01:24:05;3.88;;;1.70;;
21901;SDS011;11115;46.038;14.612;2022-08-25T01:26:34;2.38;;;1.48;;
21901;SDS011;11115;46.038;14.612;2022-08-25T01:29:06;1.80;;;1.13;;
21901;SDS011;11115;46.038;14.612;2022-08-25T01:32:00;1.95;;;1.73;;
21901;SDS011;11115;46.038;14.612;2022-08-25T01:34:33;1.98;;;1.70;;
21901;SDS011;11115;46.038;14.612;2022-08-25T01:37:13;2.50;;;1.70;;
21901;SDS011;11115;46.038;14.612;2022-08-25T01:39:50;3.78;;;1.73;;
21901;SDS011;11115;46.038;14.612;2022-08-25T01:45:02;1.58;;;1.48;;
21901;SDS011;11115;46.038;14.612;2022-08-25T01:47:40;1.77;;;1.45;;
21901;SDS011;11115;46.038;14.612;2022-08-25T01:50:14;2.35;;;1.67;;
21901;SDS011;11115;46.038;14.612;2022-08-25T01:53:09;2.72;;;1.50;;
21901;SDS011;11115;46.038;14.612;2022-08-25T01:55:59;2.25;;;1.83;;
21901;SDS011;11115;46.038;14.612;2022-08-25T01:58:41;2.13;;;1.93;;
21901;SDS011;11115;46.038;14.612;2022-08-25T02:01:19;2.25;;;1.38;;
21901;SDS011;11115;46.038;14.612;2022-08-25T02:03:52;3.58;;;1.75;;
21901;SDS011;11115;46.038;14.612;2022-08-25T02:06:26;1.83;;;1.42;;
21901;SDS011;11115;46.038;14.612;2022-08-25T02:09:12;1.13;;;1.02;;
21901;SDS011;11115;46.038;14.612;2022-08-25T02:11:45;2.05;;;1.60;;
21901;SDS011;11115;46.038;14.612;2022-08-25T02:14:20;1.92;;;1.63;;
21901;SDS011;11115;46.038;14.612;2022-08-25T02:16:53;1.63;;;1.52;;
21901;SDS011;11115;46.038;14.612;2022-08-25T02:19:24;2.42;;;1.83;;
21901;SDS011;11115;46.038;14.612;2022-08-25T02:21:57;2.13;;;1.60;;
21901;SDS011;11115;46.038;14.612;2022-08-25T02:24:33;2.60;;;1.77;;
21901;SDS011;11115;46.038;14.612;2022-08-25T02:27:11;2.58;;;1.83;;
21901;SDS011;11115;46.038;14.612;2022-08-25T02:29:44;3.00;;;1.90;;
21901;SDS011;11115;46.038;14.612;2022-08-25T02:32:23;4.57;;;1.98;;
21901;SDS011;11115;46.038;14.612;2022-08-25T02:34:55;1.85;;;1.48;;
21901;SDS011;11115;46.038;14.612;2022-08-25T02:37:37;1.30;;;1.15;;
21901;SDS011;11115;46.038;14.612;2022-08-25T02:42:43;1.58;;;1.30;;
21901;SDS011;11115;46.038;14.612;2022-08-25T02:45:15;1.85;;;1.40;;
21901;SDS011;11115;46.038;14.612;2022-08-25T02:47:47;2.63;;;1.60;;
21901;SDS011;11115;46.038;14.612;2022-08-25T02:50:24;2.08;;;1.67;;
21901;SDS011;11115;46.038;14.612;2022-08-25T02:52:58;2.08;;;1.60;;
21901;SDS011;11115;46.038;14.612;2022-08-25T02:55:34;2.35;;;1.52;;
21901;SDS011;11115;46.038;14.612;2022-08-25T02:58:19;2.50;;;1.67;;
21901;SDS011;11115;46.038;14.612;2022-08-25T03:00:53;2.15;;;1.65;;
21901;SDS011;11115;46.038;14.612;2022-08-25T03:03:31;4.70;;;1.77;;
21901;SDS011;11115;46.038;14.612;2022-08-25T03:06:17;2.40;;;1.85;;
21901;SDS011;11115;46.038;14.612;2022-08-25T03:08:50;2.13;;;1.73;;
21901;SDS011;11115;46.038;14.612;2022-08-25T03:11:19;2.58;;;1.80;;
21901;SDS011;11115;46.038;14.612;2022-08-25T03:13:55;1.85;;;1.65;;
21901;SDS011;11115;46.038;14.612;2022-08-25T03:16:26;1.83;;;1.08;;
21901;SDS011;11115;46.038;14.612;2022-08-25T03:19:06;2.63;;;1.70;;
21901;SDS011;11115;46.038;14.612;2022-08-25T03:21:38;2.97;;;2.17;;
21901;SDS011;11115;46.038;14.612;2022-08-25T03:24:12;3.95;;;2.13;;
21901;SDS011;11115;46.038;14.612;2022-08-25T03:26:44;2.33;;;1.83;;
21901;SDS011;11115;46.038;14.612;2022-08-25T03:29:29;2.13;;;1.88;;
21901;SDS011;11115;46.038;14.612;2022-08-25T03:32:08;1.75;;;1.65;;
21901;SDS011;11115;46.038;14.612;2022-08-25T03:34:36;2.55;;;1.67;;
21901;SDS011;11115;46.038;14.612;2022-08-25T03:37:10;3.03;;;1.80;;
21901;SDS011;11115;46.038;14.612;2022-08-25T03:39:41;2.85;;;1.73;;
21901;SDS011;11115;46.038;14.612;2022-08-25T03:42:13;3.10;;;2.15;;
21901;SDS011;11115;46.038;14.612;2022-08-25T03:44:44;5.22;;;2.65;;
21901;SDS011;11115;46.038;14.612;2022-08-25T03:47:25;2.67;;;1.75;;
21901;SDS011;11115;46.038;14.612;2022-08-25T03:50:07;3.63;;;2.20;;
21901;SDS011;11115;46.038;14.612;2022-08-25T03:55:08;2.95;;;1.90;;
21901;SDS011;11115;46.038;14.612;2022-08-25T03:57:43;3.15;;;1.88;;
21901;SDS011;11115;46.038;14.612;2022-08-25T04:00:11;2.42;;;1.65;;
21901;SDS011;11115;46.038;14.612;2022-08-25T04:02:44;2.17;;;1.98;;
21901;SDS011;11115;46.038;14.612;2022-08-25T04:05:25;2.03;;;1.52;;
21901;SDS011;11115;46.038;14.612;2022-08-25T04:08:00;2.42;;;1.98;;
21901;SDS011;11115;46.038;14.612;2022-08-25T04:10:44;2.88;;;2.00;;
21901;SDS011;11115;46.038;14.612;2022-08-25T04:13:19;2.00;;;1.58;;
21901;SDS011;11115;46.038;14.612;2022-08-25T04:15:54;5.10;;;1.52;;
21901;SDS011;11115;46.038;14.612;2022-08-25T04:18:29;2.65;;;1.80;;
21901;SDS011;11115;46.038;14.612;2022-08-25T04:21:07;2.20;;;1.85;;
21901;SDS011;11115;46.038;14.612;2022-08-25T04:23:38;3.58;;;2.22;;
21901;SDS011;11115;46.038;14.612;2022-08-25T04:26:09;2.40;;;2.20;;
21901;SDS011;11115;46.038;14.612;2022-08-25T04:28:41;3.38;;;2.10;;
21901;SDS011;11115;46.038;14.612;2022-08-25T04:31:14;2.08;;;1.80;;
21901;SDS011;11115;46.038;14.612;2022-08-25T04:33:50;2.42;;;1.77;;
21901;SDS011;11115;46.038;14.612;2022-08-25T04:36:22;4.07;;;1.77;;
21901;SDS011;11115;46.038;14.612;2022-08-25T04:38:52;2.95;;;1.75;;
21901;SDS011;11115;46.038;14.612;2022-08-25T04:41:24;1.60;;;1.50;;
21901;SDS011;11115;46.038;14.612;2022-08-25T04:43:59;2.08;;;1.73;;
21901;SDS011;11115;46.038;14.612;2022-08-25T04:46:30;2.83;;;2.00;;
21901;SDS011;11115;46.038;14.612;2022-08-25T04:49:04;2.85;;;1.70;;
21901;SDS011;11115;46.038;14.612;2022-08-25T04:51:40;3.33;;;2.13;;
21901;SDS011;11115;46.038;14.612;2022-08-25T04:54:11;2.13;;;1.50;;
21901;SDS011;11115;46.038;14.612;2022-08-25T04:56:58;3.35;;;2.30;;
21901;SDS011;11115;46.038;14.612;2022-08-25T04:59:33;3.78;;;2.22;;
21901;SDS011;11115;46.038;14.612;2022-08-25T05:02:11;2.15;;;1.80;;
21901;SDS011;11115;46.038;14.612;2022-08-25T05:04:55;1.67;;;1.58;;
21901;SDS011;11115;46.038;14.612;2022-08-25T05:07:40;2.10;;;1.65;;
21901;SDS011;11115;46.038;14.612;2022-08-25T05:10:32;2.22;;;1.90;;
21901;SDS011;11115;46.038;14.612;2022-08-25T05:13:05;3.70;;;2.05;;
21901;SDS011;11115;46.038;14.612;2022-08-25T05:15:50;2.50;;;2.00;;
21901;SDS011;11115;46.038;14.612;2022-08-25T05:18:29;3.00;;;2.10;;
21901;SDS011;11115;46.038;14.612;2022-08-25T05:21:06;2.28;;;1.88;;
21901;SDS011;11115;46.038;14.612;2022-08-25T05:23:40;1.83;;;1.70;;
21901;SDS011;11115;46.038;14.612;2022-08-25T05:26:12;2.83;;;2.08;;
21901;SDS011;11115;46.038;14.612;2022-08-25T05:28:48;1.70;;;1.60;;
21901;SDS011;11115;46.038;14.612;2022-08-25T05:31:19;2.28;;;1.60;;
21901;SDS011;11115;46.038;14.612;2022-08-25T05:33:53;2.30;;;1.98;;
21901;SDS011;11115;46.038;14.612;2022-08-25T05:36:29;5.45;;;1.90;;
21901;SDS011;11115;46.038;14.612;2022-08-25T05:39:01;3.47;;;2.30;;
21901;SDS011;11115;46.038;14.612;2022-08-25T05:41:36;3.20;;;2.42;;
21901;SDS011;11115;46.038;14.612;2022-08-25T05:44:06;5.75;;;1.80;;
21901;SDS011;11115;46.038;14.612;2022-08-25T05:46:59;2.65;;;2.00;;
21901;SDS011;11115;46.038;14.612;2022-08-25T05:49:32;4.75;;;1.90;;
21901;SDS011;11115;46.038;14.612;2022-08-25T05:52:03;2.78;;;2.10;;
21901;SDS011;11115;46.038;14.612;2022-08-25T05:54:46;2.30;;;2.05;;
21901;SDS011;11115;46.038;14.612;2022-08-25T05:57:21;4.10;;;2.28;;
21901;SDS011;11115;46.038;14.612;2022-08-25T05:59:55;5.07;;;2.72;;
21901;SDS011;11115;46.038;14.612;2022-08-25T06:02:52;3.83;;;2.63;;
21901;SDS011;11115;46.038;14.612;2022-08-25T06:05:21;4.15;;;2.70;;
21901;SDS011;11115;46.038;14.612;2022-08-25T06:08:00;4.80;;;2.83;;
21901;SDS011;11115;46.038;14.612;2022-08-25T06:10:35;3.35;;;2.72;;
21901;SDS011;11115;46.038;14.612;2022-08-25T06:13:06;7.57;;;3.13;;
21901;SDS011;11115;46.038;14.612;2022-08-25T06:15:37;3.88;;;3.15;;
21901;SDS011;11115;46.038;14.612;2022-08-25T06:18:13;4.45;;;2.55;;
21901;SDS011;11115;46.038;14.612;2022-08-25T06:20:44;6.65;;;2.75;;
21901;SDS011;11115;46.038;14.612;2022-08-25T06:23:15;6.32;;;2.90;;
21901;SDS011;11115;46.038;14.612;2022-08-25T06:25:57;2.67;;;2.35;;
21901;SDS011;11115;46.038;14.612;2022-08-25T06:28:29;2.83;;;2.15;;
21901;SDS011;11115;46.038;14.612;2022-08-25T06:31:03;3.47;;;2.42;;
21901;SDS011;11115;46.038;14.612;2022-08-25T06:33:41;6.75;;;2.42;;
21901;SDS011;11115;46.038;14.612;2022-08-25T06:36:20;5.57;;;2.58;;
21901;SDS011;11115;46.038;14.612;2022-08-25T06:38:51;5.38;;;2.63;;
21901;SDS011;11115;46.038;14.612;2022-08-25T06:41:28;6.40;;;2.67;;
21901;SDS011;11115;46.038;14.612;2022-08-25T06:44:12;3.80;;;2.92;;
21901;SDS011;11115;46.038;14.612;2022-08-25T06:46:45;5.68;;;3.45;;
21901;SDS011;11115;46.038;14.612;2022-08-25T06:49:24;4.40;;;2.78;;
21901;SDS011;11115;46.038;14.612;2022-08-25T06:52:11;7.70;;;3.38;;
21901;SDS011;11115;46.038;14.612;2022-08-25T06:54:55;4.72;;;2.80;;
21901;SDS011;11115;46.038;14.612;2022-08-25T06:57:38;5.25;;;3.08;;
21901;SDS011;11115;46.038;14.612;2022-08-25T07:00:14;4.45;;;2.67;;
21901;SDS011;11115;46.038;14.612;2022-08-25T07:02:58;5.50;;;2.97;;
21901;SDS011;11115;46.038;14.612;2022-08-25T07:05:36;4.10;;;2.17;;
21901;SDS011;11115;46.038;14.612;2022-08-25T07:08:16;5.20;;;2.65;;
21901;SDS011;11115;46.038;14.612;2022-08-25T07:11:10;4.90;;;2.75;;
21901;SDS011;11115;46.038;14.612;2022-08-25T07:13:45;3.92;;;2.85;;
21901;SDS011;11115;46.038;14.612;2022-08-25T07:16:16;6.30;;;3.33;;
21901;SDS011;11115;46.038;14.612;2022-08-25T07:18:57;6.25;;;2.38;;
21901;SDS011;11115;46.038;14.612;2022-08-25T07:21:34;2.60;;;2.28;;
21901;SDS011;11115;46.038;14.612;2022-08-25T07:24:08;5.15;;;2.15;;
21901;SDS011;11115;46.038;14.612;2022-08-25T07:26:41;2.83;;;1.92;;
21901;SDS011;11115;46.038;14.612;2022-08-25T07:29:15;3.88;;;1.88;;
21901;SDS011;11115;46.038;14.612;2022-08-25T07:32:02;5.43;;;2.65;;
21901;SDS011;11115;46.038;14.612;2022-08-25T07:34:38;4.32;;;2.13;;
21901;SDS011;11115;46.038;14.612;2022-08-25T07:37:25;5.53;;;2.25;;
21901;SDS011;11115;46.038;14.612;2022-08-25T07:40:21;2.58;;;2.10;;
21901;SDS011;11115;46.038;14.612;2022-08-25T07:42:59;6.10;;;2.53;;
21901;SDS011;11115;46.038;14.612;2022-08-25T07:45:35;2.30;;;2.00;;
21901;SDS011;11115;46.038;14.612;2022-08-25T07:48:15;2.53;;;1.95;;
21901;SDS011;11115;46.038;14.612;2022-08-25T07:50:54;2.70;;;2.25;;
21901;SDS011;11115;46.038;14.612;2022-08-25T07:53:49;2.38;;;1.88;;
21901;SDS011;11115;46.038;14.612;2022-08-25T07:56:20;3.65;;;1.83;;
21901;SDS011;11115;46.038;14.612;2022-08-25T07:59:08;3.55;;;1.80;;
21901;SDS011;11115;46.038;14.612;2022-08-25T08:01:41;3.80;;;2.03;;
21901;SDS011;11115;46.038;14.612;2022-08-25T08:04:14;2.15;;;1.75;;
21901;SDS011;11115;46.038;14.612;2022-08-25T08:06:49;2.47;;;1.95;;
21901;SDS011;11115;46.038;14.612;2022-08-25T08:09:22;2.13;;;1.88;;
21901;SDS011;11115;46.038;14.612;2022-08-25T08:12:03;1.95;;;1.63;;
21901;SDS011;11115;46.038;14.612;2022-08-25T08:14:48;7.93;;;2.15;;
21901;SDS011;11115;46.038;14.612;2022-08-25T08:17:25;1.38;;;1.27;;
21901;SDS011;11115;46.038;14.612;2022-08-25T08:19:58;2.28;;;1.98;;
21901;SDS011;11115;46.038;14.612;2022-08-25T08:22:31;2.90;;;1.73;;
21901;SDS011;11115;46.038;14.612;2022-08-25T08:25:12;2.03;;;1.70;;
21901;SDS011;11115;46.038;14.612;2022-08-25T08:27:53;1.88;;;1.45;;
21901;SDS011;11115;46.038;14.612;2022-08-25T08:30:27;3.20;;;2.08;;
21901;SDS011;11115;46.038;14.612;2022-08-25T08:36:05;5.18;;;2.50;;
21901;SDS011;11115;46.038;14.612;2022-08-25T08:38:44;2.63;;;1.75;;
21901;SDS011;11115;46.038;14.612;2022-08-25T08:51:06;2.00;;;1.80;;
21901;SDS011;11115;46.038;14.612;2022-08-25T08:54:18;3.35;;;1.73;;
21901;SDS011;11115;46.038;14.612;2022-08-25T08:57:14;4.45;;;1.80;;
21901;SDS011;11115;46.038;14.612;2022-08-25T09:00:00;1.65;;;1.45;;
21901;SDS011;11115;46.038;14.612;2022-08-25T09:02:37;1.67;;;1.45;;
21901;SDS011;11115;46.038;14.612;2022-08-25T09:05:20;8.75;;;1.95;;
21901;SDS011;11115;46.038;14.612;2022-08-25T09:08:03;3.03;;;1.83;;
21901;SDS011;11115;46.038;14.612;2022-08-25T09:11:03;2.55;;;2.00;;
21901;SDS011;11115;46.038;14.612;2022-08-25T09:14:03;2.58;;;1.55;;
21901;SDS011;11115;46.038;14.612;2022-08-25T09:17:00;2.35;;;1.88;;
21901;SDS011;11115;46.038;14.612;2022-08-25T09:29:00;2.38;;;1.50;;
21901;SDS011;11115;46.038;14.612;2022-08-25T09:31:34;2.25;;;1.83;;
21901;SDS011;11115;46.038;14.612;2022-08-25T09:34:16;1.52;;;1.42;;
21901;SDS011;11115;46.038;14.612;2022-08-25T09:36:58;1.67;;;1.58;;
21901;SDS011;11115;46.038;14.612;2022-08-25T09:39:34;6.13;;;1.75;;
21901;SDS011;11115;46.038;14.612;2022-08-25T09:42:06;1.60;;;1.50;;
21901;SDS011;11115;46.038;14.612;2022-08-25T09:44:52;2.20;;;1.80;;
21901;SDS011;11115;46.038;14.612;2022-08-25T09:47:41;2.38;;;2.03;;
21901;SDS011;11115;46.038;14.612;2022-08-25T09:50:16;1.75;;;1.48;;
21901;SDS011;11115;46.038;14.612;2022-08-25T09:52:56;4.93;;;1.58;;
21901;SDS011;11115;46.038;14.612;2022-08-25T09:55:51;1.35;;;1.25;;
21901;SDS011;11115;46.038;14.612;2022-08-25T09:58:43;2.63;;;1.55;;
21901;SDS011;11115;46.038;14.612;2022-08-25T10:01:23;2.57;;;2.00;;
21901;SDS011;11115;46.038;14.612;2022-08-25T10:04:03;1.45;;;1.35;;
21901;SDS011;11115;46.038;14.612;2022-08-25T10:06:46;2.88;;;1.42;;
21901;SDS011;11115;46.038;14.612;2022-08-25T10:09:25;2.65;;;2.13;;
21901;SDS011;11115;46.038;14.612;2022-08-25T10:12:18;2.38;;;1.90;;
21901;SDS011;11115;46.038;14.612;2022-08-25T10:14:58;1.67;;;1.45;;
21901;SDS011;11115;46.038;14.612;2022-08-25T10:17:56;3.30;;;1.33;;
21901;SDS011;11115;46.038;14.612;2022-08-25T10:23:51;1.48;;;1.38;;
21901;SDS011;11115;46.038;14.612;2022-08-25T10:35:37;2.08;;;1.75;;
21901;SDS011;11115;46.038;14.612;2022-08-25T10:38:43;2.95;;;1.60;;
21901;SDS011;11115;46.038;14.612;2022-08-25T10:44:12;2.05;;;1.40;;
21901;SDS011;11115;46.038;14.612;2022-08-25T10:47:41;1.65;;;1.17;;
21901;SDS011;11115;46.038;14.612;2022-08-25T10:50:37;5.03;;;1.88;;
21901;SDS011;11115;46.038;14.612;2022-08-25T10:54:03;2.05;;;1.52;;
21901;SDS011;11115;46.038;14.612;2022-08-25T10:57:21;1.35;;;1.25;;
21901;SDS011;11115;46.038;14.612;2022-08-25T11:00:07;2.60;;;1.60;;
21901;SDS011;11115;46.038;14.612;2022-08-25T11:03:10;1.35;;;1.02;;
21901;SDS011;11115;46.038;14.612;2022-08-25T11:06:12;2.83;;;1.60;;
21901;SDS011;11115;46.038;14.612;2022-08-25T11:09:10;1.35;;;1.20;;
21901;SDS011;11115;46.038;14.612;2022-08-25T11:12:06;1.50;;;1.00;;
21901;SDS011;11115;46.038;14.612;2022-08-25T11:14:40;2.08;;;1.40;;
21901;SDS011;11115;46.038;14.612;2022-08-25T11:17:19;1.52;;;1.42;;
21901;SDS011;11115;46.038;14.612;2022-08-25T11:19:56;1.80;;;1.70;;
21901;SDS011;11115;46.038;14.612;2022-08-25T11:28:08;1.45;;;1.35;;
21901;SDS011;11115;46.038;14.612;2022-08-25T11:30:44;1.20;;;1.10;;
21901;SDS011;11115;46.038;14.612;2022-08-25T11:33:16;1.90;;;1.33;;
21901;SDS011;11115;46.038;14.612;2022-08-25T11:36:09;2.58;;;1.60;;
21901;SDS011;11115;46.038;14.612;2022-08-25T11:51:41;1.80;;;1.42;;
21901;SDS011;11115;46.038;14.612;2022-08-25T11:57:24;2.50;;;1.60;;
21901;SDS011;11115;46.038;14.612;2022-08-25T12:00:03;2.05;;;1.52;;
21901;SDS011;11115;46.038;14.612;2022-08-25T12:02:46;2.30;;;1.33;;
21901;SDS011;11115;46.038;14.612;2022-08-25T12:08:04;2.03;;;1.27;;
21901;SDS011;11115;46.038;14.612;2022-08-25T12:13:48;2.33;;;1.55;;
21901;SDS011;11115;46.038;14.612;2022-08-25T12:16:39;1.40;;;1.30;;
21901;SDS011;11115;46.038;14.612;2022-08-25T12:30:25;1.60;;;1.35;;
21901;SDS011;11115;46.038;14.612;2022-08-25T12:36:28;2.40;;;1.42;;
21901;SDS011;11115;46.038;14.612;2022-08-25T12:39:13;3.72;;;2.00;;
21901;SDS011;11115;46.038;14.612;2022-08-25T12:42:04;5.20;;;1.80;;
21901;SDS011;11115;46.038;14.612;2022-08-25T12:47:53;1.73;;;1.38;;
21901;SDS011;11115;46.038;14.612;2022-08-25T12:50:39;1.85;;;1.50;;
21901;SDS011;11115;46.038;14.612;2022-08-25T12:56:34;2.22;;;1.40;;
21901;SDS011;11115;46.038;14.612;2022-08-25T12:59:15;2.05;;;1.30;;
21901;SDS011;11115;46.038;14.612;2022-08-25T13:01:55;1.95;;;1.17;;
21901;SDS011;11115;46.038;14.612;2022-08-25T13:10:45;1.55;;;1.45;;
21901;SDS011;11115;46.038;14.612;2022-08-25T13:16:16;3.67;;;1.20;;
21901;SDS011;11115;46.038;14.612;2022-08-25T13:18:57;3.10;;;1.60;;
21901;SDS011;11115;46.038;14.612;2022-08-25T13:21:36;2.53;;;1.30;;
21901;SDS011;11115;46.038;14.612;2022-08-25T13:24:16;2.50;;;1.80;;
21901;SDS011;11115;46.038;14.612;2022-08-25T13:26:56;1.98;;;1.42;;
21901;SDS011;11115;46.038;14.612;2022-08-25T13:29:34;4.05;;;2.05;;
21901;SDS011;11115;46.038;14.612;2022-08-25T13:32:24;4.05;;;1.63;;
21901;SDS011;11115;46.038;14.612;2022-08-25T13:35:06;2.60;;;1.35;;
21901;SDS011;11115;46.038;14.612;2022-08-25T13:38:16;1.17;;;1.08;;
21901;SDS011;11115;46.038;14.612;2022-08-25T13:41:05;2.03;;;1.20;;
21901;SDS011;11115;46.038;14.612;2022-08-25T13:43:43;1.40;;;1.30;;
21901;SDS011;11115;46.038;14.612;2022-08-25T13:46:19;2.20;;;1.52;;
21901;SDS011;11115;46.038;14.612;2022-08-25T13:49:04;1.42;;;1.33;;
21901;SDS011;11115;46.038;14.612;2022-08-25T13:51:55;7.05;;;1.20;;
21901;SDS011;11115;46.038;14.612;2022-08-25T13:54:43;1.33;;;1.23;;
21901;SDS011;11115;46.038;14.612;2022-08-25T13:57:22;2.50;;;1.50;;
21901;SDS011;11115;46.038;14.612;2022-08-25T14:00:00;3.88;;;1.60;;
21901;SDS011;11115;46.038;14.612;2022-08-25T14:02:45;1.13;;;0.98;;
21901;SDS011;11115;46.038;14.612;2022-08-25T14:05:38;1.58;;;1.33;;
21901;SDS011;11115;46.038;14.612;2022-08-25T14:08:30;1.77;;;1.42;;
21901;SDS011;11115;46.038;14.612;2022-08-25T14:17:05;3.08;;;1.63;;
21901;SDS011;11115;46.038;14.612;2022-08-25T14:20:28;3.63;;;1.80;;
21901;SDS011;11115;46.038;14.612;2022-08-25T14:23:05;3.10;;;1.73;;
21901;SDS011;11115;46.038;14.612;2022-08-25T14:25:47;1.98;;;1.48;;
21901;SDS011;11115;46.038;14.612;2022-08-25T14:28:20;3.50;;;1.38;;
21901;SDS011;11115;46.038;14.612;2022-08-25T14:30:56;2.05;;;1.25;;
21901;SDS011;11115;46.038;14.612;2022-08-25T14:33:39;5.07;;;1.65;;
21901;SDS011;11115;46.038;14.612;2022-08-25T14:36:39;1.70;;;1.25;;
21901;SDS011;11115;46.038;14.612;2022-08-25T14:39:26;1.67;;;1.48;;
21901;SDS011;11115;46.038;14.612;2022-08-25T14:42:11;2.47;;;1.48;;
21901;SDS011;11115;46.038;14.612;2022-08-25T14:44:51;1.73;;;1.60;;
21901;SDS011;11115;46.038;14.612;2022-08-25T14:47:34;1.35;;;1.25;;
21901;SDS011;11115;46.038;14.612;2022-08-25T14:50:09;3.05;;;1.80;;
21901;SDS011;11115;46.038;14.612;2022-08-25T14:52:46;6.35;;;1.17;;
21901;SDS011;11115;46.038;14.612;2022-08-25T14:55:20;2.80;;;1.73;;
21901;SDS011;11115;46.038;14.612;2022-08-25T14:58:00;1.70;;;1.58;;
21901;SDS011;11115;46.038;14.612;2022-08-25T15:00:42;1.50;;;1.10;;
21901;SDS011;11115;46.038;14.612;2022-08-25T15:03:31;1.48;;;1.30;;
21901;SDS011;11115;46.038;14.612;2022-08-25T15:06:14;2.85;;;1.52;;
21901;SDS011;11115;46.038;14.612;2022-08-25T15:08:57;2.70;;;1.55;;
21901;SDS011;11115;46.038;14.612;2022-08-25T15:11:43;2.08;;;1.60;;
21901;SDS011;11115;46.038;14.612;2022-08-25T15:14:21;4.18;;;1.65;;
21901;SDS011;11115;46.038;14.612;2022-08-25T15:17:02;5.53;;;1.42;;
21901;SDS011;11115;46.038;14.612;2022-08-25T15:19:33;4.15;;;1.80;;
21901;SDS011;11115;46.038;14.612;2022-08-25T15:22:12;2.47;;;1.58;;
21901;SDS011;11115;46.038;14.612;2022-08-25T15:25:00;2.35;;;1.52;;
21901;SDS011;11115;46.038;14.612;2022-08-25T15:27:32;2.75;;;1.73;;
21901;SDS011;11115;46.038;14.612;2022-08-25T15:30:12;1.48;;;1.33;;
21901;SDS011;11115;46.038;14.612;2022-08-25T15:32:47;2.97;;;1.70;;
21901;SDS011;11115;46.038;14.612;2022-08-25T15:35:27;2.15;;;1.45;;
21901;SDS011;11115;46.038;14.612;2022-08-25T15:37:58;3.53;;;1.50;;
21901;SDS011;11115;46.038;14.612;2022-08-25T15:40:30;1.77;;;1.50;;
21901;SDS011;11115;46.038;14.612;2022-08-25T15:43:02;2.53;;;1.27;;
21901;SDS011;11115;46.038;14.612;2022-08-25T15:45:41;1.60;;;1.27;;
21901;SDS011;11115;46.038;14.612;2022-08-25T15:48:17;2.28;;;1.40;;
21901;SDS011;11115;46.038;14.612;2022-08-25T15:50:54;4.82;;;1.88;;
21901;SDS011;11115;46.038;14.612;2022-08-25T15:53:25;1.60;;;1.50;;
21901;SDS011;11115;46.038;14.612;2022-08-25T15:56:06;5.75;;;1.48;;
21901;SDS011;11115;46.038;14.612;2022-08-25T15:58:55;1.73;;;1.35;;
21901;SDS011;11115;46.038;14.612;2022-08-25T16:01:38;1.80;;;1.27;;
21901;SDS011;11115;46.038;14.612;2022-08-25T16:04:17;3.47;;;2.00;;
21901;SDS011;11115;46.038;14.612;2022-08-25T16:06:51;2.63;;;1.67;;
21901;SDS011;11115;46.038;14.612;2022-08-25T16:09:27;1.38;;;1.10;;
21901;SDS011;11115;46.038;14.612;2022-08-25T16:12:07;3.00;;;1.70;;
21901;SDS011;11115;46.038;14.612;2022-08-25T16:14:43;3.15;;;1.88;;
21901;SDS011;11115;46.038;14.612;2022-08-25T16:17:14;3.15;;;2.05;;
21901;SDS011;11115;46.038;14.612;2022-08-25T16:19:48;4.60;;;1.90;;
21901;SDS011;11115;46.038;14.612;2022-08-25T16:22:31;2.55;;;1.48;;
21901;SDS011;11115;46.038;14.612;2022-08-25T16:25:06;2.22;;;1.80;;
21901;SDS011;11115;46.038;14.612;2022-08-25T16:27:45;1.45;;;1.35;;
21901;SDS011;11115;46.038;14.612;2022-08-25T16:30:19;1.27;;;1.17;;
21901;SDS011;11115;46.038;14.612;2022-08-25T16:32:52;2.67;;;1.63;;
21901;SDS011;11115;46.038;14.612;2022-08-25T16:35:26;2.45;;;1.70;;
21901;SDS011;11115;46.038;14.612;2022-08-25T16:38:10;2.28;;;1.55;;
21901;SDS011;11115;46.038;14.612;2022-08-25T16:40:47;4.50;;;1.58;;
21901;SDS011;11115;46.038;14.612;2022-08-25T16:43:16;1.20;;;1.10;;
21901;SDS011;11115;46.038;14.612;2022-08-25T16:45:59;1.20;;;1.10;;
21901;SDS011;11115;46.038;14.612;2022-08-25T16:48:32;2.70;;;1.75;;
21901;SDS011;11115;46.038;14.612;2022-08-25T16:51:14;5.57;;;1.70;;
21901;SDS011;11115;46.038;14.612;2022-08-25T16:53:57;8.82;;;2.17;;
21901;SDS011;11115;46.038;14.612;2022-08-25T16:56:48;3.38;;;1.95;;
21901;SDS011;11115;46.038;14.612;2022-08-25T16:59:29;1.80;;;1.33;;
21901;SDS011;11115;46.038;14.612;2022-08-25T17:02:01;3.83;;;1.45;;
21901;SDS011;11115;46.038;14.612;2022-08-25T17:04:34;2.38;;;1.70;;
21901;SDS011;11115;46.038;14.612;2022-08-25T17:07:08;7.65;;;1.73;;
21901;SDS011;11115;46.038;14.612;2022-08-25T17:09:50;2.17;;;1.75;;
21901;SDS011;11115;46.038;14.612;2022-08-25T17:12:25;5.88;;;2.17;;
21901;SDS011;11115;46.038;14.612;2022-08-25T17:15:00;2.53;;;1.63;;
21901;SDS011;11115;46.038;14.612;2022-08-25T17:17:32;2.83;;;1.80;;
21901;SDS011;11115;46.038;14.612;2022-08-25T17:20:07;2.88;;;1.50;;
21901;SDS011;11115;46.038;14.612;2022-08-25T17:22:37;2.88;;;1.70;;
21901;SDS011;11115;46.038;14.612;2022-08-25T17:25:08;3.28;;;1.80;;
21901;SDS011;11115;46.038;14.612;2022-08-25T17:27:40;3.83;;;1.88;;
21901;SDS011;11115;46.038;14.612;2022-08-25T17:30:11;1.98;;;1.60;;
21901;SDS011;11115;46.038;14.612;2022-08-25T17:32:42;2.58;;;1.80;;
21901;SDS011;11115;46.038;14.612;2022-08-25T17:35:18;2.90;;;2.30;;
21901;SDS011;11115;46.038;14.612;2022-08-25T17:37:53;2.13;;;1.60;;
21901;SDS011;11115;46.038;14.612;2022-08-25T17:40:32;4.78;;;2.50;;